sensor_id;sensor_type;location;lat;lon;timestamp;temperature;humidity
38241;DHT22;24037;49.536;8.500;2022-07-05T00:02:00;15.80;92.80
38241;DHT22;24037;49.536;8.500;2022-07-05T00:04:26;15.70;92.90
38241;DHT22;24037;49.536;8.500;2022-07-05T00:06:52;15.80;93.40
38241;DHT22;24037;49.536;8.500;2022-07-05T00:09:37;15.80;93.20
38241;DHT22;24037;49.536;8.500;2022-07-05T00:12:03;15.80;93.10
38241;DHT22;24037;49.536;8.500;2022-07-05T00:14:30;15.80;93.30
38241;DHT22;24037;49.536;8.500;2022-07-05T00:16:56;15.60;93.50
38241;DHT22;24037;49.536;8.500;2022-07-05T00:19:23;15.50;94.50
38241;DHT22;24037;49.536;8.500;2022-07-05T00:21:49;15.40;94.70
38241;DHT22;24037;49.536;8.500;2022-07-05T00:24:15;15.30;95.00
38241;DHT22;24037;49.536;8.500;2022-07-05T00:26:41;15.30;95.50
38241;DHT22;24037;49.536;8.500;2022-07-05T00:29:07;15.20;95.50
38241;DHT22;24037;49.536;8.500;2022-07-05T00:31:33;15.30;95.30
38241;DHT22;24037;49.536;8.500;2022-07-05T00:34:00;15.40;95.50
38241;DHT22;24037;49.536;8.500;2022-07-05T00:36:26;15.30;95.80
38241;DHT22;24037;49.536;8.500;2022-07-05T00:38:52;15.30;96.20
38241;DHT22;24037;49.536;8.500;2022-07-05T00:41:19;15.20;96.10
38241;DHT22;24037;49.536;8.500;2022-07-05T00:43:57;15.10;96.60
38241;DHT22;24037;49.536;8.500;2022-07-05T00:46:25;15.10;96.90
38241;DHT22;24037;49.536;8.500;2022-07-05T00:48:51;15.10;96.70
38241;DHT22;24037;49.536;8.500;2022-07-05T00:51:18;15.00;96.70
38241;DHT22;24037;49.536;8.500;2022-07-05T00:53:45;14.90;97.00
38241;DHT22;24037;49.536;8.500;2022-07-05T00:56:12;14.80;97.40
38241;DHT22;24037;49.536;8.500;2022-07-05T00:58:39;14.80;97.70
38241;DHT22;24037;49.536;8.500;2022-07-05T01:01:07;14.80;98.00
38241;DHT22;24037;49.536;8.500;2022-07-05T01:03:34;14.80;98.00
38241;DHT22;24037;49.536;8.500;2022-07-05T01:06:02;14.80;97.80
38241;DHT22;24037;49.536;8.500;2022-07-05T01:08:29;14.80;97.70
38241;DHT22;24037;49.536;8.500;2022-07-05T01:10:55;14.90;97.30
38241;DHT22;24037;49.536;8.500;2022-07-05T01:13:23;14.90;97.30
38241;DHT22;24037;49.536;8.500;2022-07-05T01:15:50;14.90;97.40
38241;DHT22;24037;49.536;8.500;2022-07-05T01:18:16;14.90;97.70
38241;DHT22;24037;49.536;8.500;2022-07-05T01:20:42;14.90;97.70
38241;DHT22;24037;49.536;8.500;2022-07-05T01:23:09;14.90;97.80
38241;DHT22;24037;49.536;8.500;2022-07-05T01:25:35;15.00;97.90
38241;DHT22;24037;49.536;8.500;2022-07-05T01:28:03;15.00;97.90
38241;DHT22;24037;49.536;8.500;2022-07-05T01:30:33;15.00;97.90
38241;DHT22;24037;49.536;8.500;2022-07-05T01:33:00;15.00;97.90
38241;DHT22;24037;49.536;8.500;2022-07-05T01:35:26;15.00;97.90
38241;DHT22;24037;49.536;8.500;2022-07-05T01:37:52;15.10;98.00
38241;DHT22;24037;49.536;8.500;2022-07-05T01:40:20;15.10;98.10
38241;DHT22;24037;49.536;8.500;2022-07-05T01:42:47;15.10;98.10
38241;DHT22;24037;49.536;8.500;2022-07-05T01:45:13;15.00;98.30
38241;DHT22;24037;49.536;8.500;2022-07-05T01:48:14;15.00;98.70
38241;DHT22;24037;49.536;8.500;2022-07-05T01:50:50;14.90;99.10
38241;DHT22;24037;49.536;8.500;2022-07-05T01:53:22;14.80;99.60
38241;DHT22;24037;49.536;8.500;2022-07-05T02:01:53;14.80;99.60
38241;DHT22;24037;49.536;8.500;2022-07-05T02:04:20;14.80;99.30
38241;DHT22;24037;49.536;8.500;2022-07-05T02:06:46;14.90;99.00
38241;DHT22;24037;49.536;8.500;2022-07-05T02:09:13;14.90;98.80
38241;DHT22;24037;49.536;8.500;2022-07-05T02:11:39;14.90;98.60
38241;DHT22;24037;49.536;8.500;2022-07-05T02:14:06;15.00;98.70
38241;DHT22;24037;49.536;8.500;2022-07-05T02:16:39;15.00;98.50
38241;DHT22;24037;49.536;8.500;2022-07-05T02:19:05;15.00;98.50
38241;DHT22;24037;49.536;8.500;2022-07-05T02:21:36;15.00;98.30
38241;DHT22;24037;49.536;8.500;2022-07-05T02:24:06;15.00;98.30
38241;DHT22;24037;49.536;8.500;2022-07-05T02:26:37;15.00;98.30
38241;DHT22;24037;49.536;8.500;2022-07-05T02:29:04;15.00;98.30
38241;DHT22;24037;49.536;8.500;2022-07-05T02:31:32;14.90;98.70
38241;DHT22;24037;49.536;8.500;2022-07-05T02:33:59;14.90;98.90
38241;DHT22;24037;49.536;8.500;2022-07-05T02:36:26;14.90;99.10
38241;DHT22;24037;49.536;8.500;2022-07-05T02:38:52;14.80;99.00
38241;DHT22;24037;49.536;8.500;2022-07-05T02:41:19;14.70;99.60
38241;DHT22;24037;49.536;8.500;2022-07-05T02:43:49;14.70;99.90
38241;DHT22;24037;49.536;8.500;2022-07-05T02:46:18;14.60;99.90
38241;DHT22;24037;49.536;8.500;2022-07-05T02:48:45;14.50;99.90
38241;DHT22;24037;49.536;8.500;2022-07-05T02:51:11;14.40;99.90
38241;DHT22;24037;49.536;8.500;2022-07-05T02:53:38;14.40;99.90
38241;DHT22;24037;49.536;8.500;2022-07-05T02:56:07;14.30;99.90
38241;DHT22;24037;49.536;8.500;2022-07-05T02:58:33;14.20;99.90
38241;DHT22;24037;49.536;8.500;2022-07-05T03:01:02;14.20;99.90
38241;DHT22;24037;49.536;8.500;2022-07-05T03:03:31;13.90;99.90
38241;DHT22;24037;49.536;8.500;2022-07-05T03:05:58;13.70;99.90
38241;DHT22;24037;49.536;8.500;2022-07-05T03:08:25;13.80;99.90
38241;DHT22;24037;49.536;8.500;2022-07-05T03:10:51;13.80;99.90
38241;DHT22;24037;49.536;8.500;2022-07-05T03:13:17;13.90;99.90
38241;DHT22;24037;49.536;8.500;2022-07-05T03:15:44;13.90;99.90
38241;DHT22;24037;49.536;8.500;2022-07-05T03:18:13;13.90;99.90
38241;DHT22;24037;49.536;8.500;2022-07-05T03:20:39;13.80;99.90
38241;DHT22;24037;49.536;8.500;2022-07-05T03:23:06;13.60;99.90
38241;DHT22;24037;49.536;8.500;2022-07-05T03:25:40;13.50;99.90
38241;DHT22;24037;49.536;8.500;2022-07-05T03:28:07;13.50;99.90
38241;DHT22;24037;49.536;8.500;2022-07-05T03:30:34;13.60;99.90
38241;DHT22;24037;49.536;8.500;2022-07-05T03:33:01;13.50;99.90
38241;DHT22;24037;49.536;8.500;2022-07-05T03:35:30;13.50;99.90
38241;DHT22;24037;49.536;8.500;2022-07-05T03:37:57;13.40;99.90
38241;DHT22;24037;49.536;8.500;2022-07-05T03:40:23;13.20;99.90
38241;DHT22;24037;49.536;8.500;2022-07-05T03:42:50;13.10;99.90
38241;DHT22;24037;49.536;8.500;2022-07-05T03:45:17;13.00;99.90
38241;DHT22;24037;49.536;8.500;2022-07-05T03:47:43;13.10;99.90
38241;DHT22;24037;49.536;8.500;2022-07-05T03:50:13;13.20;99.90
38241;DHT22;24037;49.536;8.500;2022-07-05T03:52:40;13.40;99.90
38241;DHT22;24037;49.536;8.500;2022-07-05T03:55:06;13.30;99.90
38241;DHT22;24037;49.536;8.500;2022-07-05T03:57:34;13.20;99.90
38241;DHT22;24037;49.536;8.500;2022-07-05T04:00:01;13.00;99.90
38241;DHT22;24037;49.536;8.500;2022-07-05T04:02:27;12.90;99.90
38241;DHT22;24037;49.536;8.500;2022-07-05T04:04:54;13.10;99.90
38241;DHT22;24037;49.536;8.500;2022-07-05T04:07:22;13.20;99.90
38241;DHT22;24037;49.536;8.500;2022-07-05T04:09:48;13.20;99.90
38241;DHT22;24037;49.536;8.500;2022-07-05T04:12:14;13.20;99.90
38241;DHT22;24037;49.536;8.500;2022-07-05T04:14:43;13.00;99.90
38241;DHT22;24037;49.536;8.500;2022-07-05T04:17:09;12.90;99.90
38241;DHT22;24037;49.536;8.500;2022-07-05T04:19:36;13.00;99.90
38241;DHT22;24037;49.536;8.500;2022-07-05T04:22:02;13.10;99.90
38241;DHT22;24037;49.536;8.500;2022-07-05T04:24:29;13.30;99.90
38241;DHT22;24037;49.536;8.500;2022-07-05T04:26:56;13.90;99.90
38241;DHT22;24037;49.536;8.500;2022-07-05T04:29:25;15.00;99.90
38241;DHT22;24037;49.536;8.500;2022-07-05T04:31:52;16.20;99.90
38241;DHT22;24037;49.536;8.500;2022-07-05T04:34:18;17.00;97.90
38241;DHT22;24037;49.536;8.500;2022-07-05T04:36:45;17.60;95.50
38241;DHT22;24037;49.536;8.500;2022-07-05T04:39:11;18.20;93.40
38241;DHT22;24037;49.536;8.500;2022-07-05T04:41:45;18.00;93.50
38241;DHT22;24037;49.536;8.500;2022-07-05T04:44:12;18.20;93.30
38241;DHT22;24037;49.536;8.500;2022-07-05T04:46:38;18.50;92.20
38241;DHT22;24037;49.536;8.500;2022-07-05T04:49:05;19.00;90.90
38241;DHT22;24037;49.536;8.500;2022-07-05T04:51:31;19.70;88.90
38241;DHT22;24037;49.536;8.500;2022-07-05T04:53:58;20.00;85.10
38241;DHT22;24037;49.536;8.500;2022-07-05T04:56:24;20.20;84.40
38241;DHT22;24037;49.536;8.500;2022-07-05T04:58:50;20.50;81.80
38241;DHT22;24037;49.536;8.500;2022-07-05T05:01:16;20.80;80.40
38241;DHT22;24037;49.536;8.500;2022-07-05T05:03:42;21.50;76.90
38241;DHT22;24037;49.536;8.500;2022-07-05T05:06:09;22.00;74.80
38241;DHT22;24037;49.536;8.500;2022-07-05T05:08:35;23.30;69.20
38241;DHT22;24037;49.536;8.500;2022-07-05T05:11:01;23.20;67.40
38241;DHT22;24037;49.536;8.500;2022-07-05T05:13:27;22.50;69.30
38241;DHT22;24037;49.536;8.500;2022-07-05T05:15:53;22.80;68.90
38241;DHT22;24037;49.536;8.500;2022-07-05T05:18:20;22.60;68.30
38241;DHT22;24037;49.536;8.500;2022-07-05T05:20:50;22.70;68.10
38241;DHT22;24037;49.536;8.500;2022-07-05T05:23:16;22.80;67.70
38241;DHT22;24037;49.536;8.500;2022-07-05T05:25:42;23.10;65.80
38241;DHT22;24037;49.536;8.500;2022-07-05T05:28:08;23.10;66.10
38241;DHT22;24037;49.536;8.500;2022-07-05T05:30:34;22.60;66.50
38241;DHT22;24037;49.536;8.500;2022-07-05T05:33:01;22.10;67.70
38241;DHT22;24037;49.536;8.500;2022-07-05T05:35:27;22.20;67.70
38241;DHT22;24037;49.536;8.500;2022-07-05T05:37:55;22.50;66.80
38241;DHT22;24037;49.536;8.500;2022-07-05T05:40:23;22.90;66.10
38241;DHT22;24037;49.536;8.500;2022-07-05T05:42:50;22.50;66.30
38241;DHT22;24037;49.536;8.500;2022-07-05T05:45:18;22.50;66.50
38241;DHT22;24037;49.536;8.500;2022-07-05T05:47:48;22.70;65.90
38241;DHT22;24037;49.536;8.500;2022-07-05T05:50:25;23.30;64.60
38241;DHT22;24037;49.536;8.500;2022-07-05T05:52:52;23.40;63.50
38241;DHT22;24037;49.536;8.500;2022-07-05T05:55:19;23.10;63.70
38241;DHT22;24037;49.536;8.500;2022-07-05T05:57:46;23.50;62.80
38241;DHT22;24037;49.536;8.500;2022-07-05T06:00:13;23.70;62.50
38241;DHT22;24037;49.536;8.500;2022-07-05T06:02:41;23.40;62.40
38241;DHT22;24037;49.536;8.500;2022-07-05T06:05:08;23.60;62.60
38241;DHT22;24037;49.536;8.500;2022-07-05T06:10:15;23.20;63.20
38241;DHT22;24037;49.536;8.500;2022-07-05T06:12:41;23.00;63.50
38241;DHT22;24037;49.536;8.500;2022-07-05T06:15:07;23.00;63.30
38241;DHT22;24037;49.536;8.500;2022-07-05T06:17:37;23.40;63.10
38241;DHT22;24037;49.536;8.500;2022-07-05T06:20:26;22.70;63.50
38241;DHT22;24037;49.536;8.500;2022-07-05T06:22:53;23.20;64.30
38241;DHT22;24037;49.536;8.500;2022-07-05T06:25:19;23.70;60.80
38241;DHT22;24037;49.536;8.500;2022-07-05T06:27:59;23.20;62.10
38241;DHT22;24037;49.536;8.500;2022-07-05T06:30:30;23.20;62.10
38241;DHT22;24037;49.536;8.500;2022-07-05T06:32:56;23.50;61.00
38241;DHT22;24037;49.536;8.500;2022-07-05T06:35:23;23.30;61.30
38241;DHT22;24037;49.536;8.500;2022-07-05T06:40:23;23.80;57.70
38241;DHT22;24037;49.536;8.500;2022-07-05T06:42:51;23.70;59.00
38241;DHT22;24037;49.536;8.500;2022-07-05T06:45:22;23.90;58.30
38241;DHT22;24037;49.536;8.500;2022-07-05T06:47:58;24.10;58.40
38241;DHT22;24037;49.536;8.500;2022-07-05T06:50:29;24.20;57.20
38241;DHT22;24037;49.536;8.500;2022-07-05T06:52:56;24.60;58.10
38241;DHT22;24037;49.536;8.500;2022-07-05T06:55:22;24.90;57.50
38241;DHT22;24037;49.536;8.500;2022-07-05T06:57:49;24.30;58.00
38241;DHT22;24037;49.536;8.500;2022-07-05T07:00:21;24.90;55.70
38241;DHT22;24037;49.536;8.500;2022-07-05T07:02:47;25.30;55.80
38241;DHT22;24037;49.536;8.500;2022-07-05T07:05:14;24.90;55.70
38241;DHT22;24037;49.536;8.500;2022-07-05T07:07:40;24.70;56.20
38241;DHT22;24037;49.536;8.500;2022-07-05T07:10:25;25.10;56.00
38241;DHT22;24037;49.536;8.500;2022-07-05T07:12:51;25.60;54.80
38241;DHT22;24037;49.536;8.500;2022-07-05T07:15:17;25.20;54.80
38241;DHT22;24037;49.536;8.500;2022-07-05T07:17:44;24.10;58.00
38241;DHT22;24037;49.536;8.500;2022-07-05T07:20:10;24.00;57.60
38241;DHT22;24037;49.536;8.500;2022-07-05T07:22:37;24.20;57.40
38241;DHT22;24037;49.536;8.500;2022-07-05T07:25:03;24.30;56.20
38241;DHT22;24037;49.536;8.500;2022-07-05T07:27:31;24.60;56.10
38241;DHT22;24037;49.536;8.500;2022-07-05T07:29:57;25.00;55.50
38241;DHT22;24037;49.536;8.500;2022-07-05T07:32:23;25.60;54.90
38241;DHT22;24037;49.536;8.500;2022-07-05T07:34:49;26.60;54.20
38241;DHT22;24037;49.536;8.500;2022-07-05T07:37:16;26.50;53.70
38241;DHT22;24037;49.536;8.500;2022-07-05T07:39:42;25.60;54.10
38241;DHT22;24037;49.536;8.500;2022-07-05T07:42:08;26.20;52.50
38241;DHT22;24037;49.536;8.500;2022-07-05T07:44:34;26.40;53.00
38241;DHT22;24037;49.536;8.500;2022-07-05T07:47:00;26.30;53.70
38241;DHT22;24037;49.536;8.500;2022-07-05T07:49:27;27.00;52.80
38241;DHT22;24037;49.536;8.500;2022-07-05T07:51:53;26.60;52.40
38241;DHT22;24037;49.536;8.500;2022-07-05T07:54:19;25.90;53.30
38241;DHT22;24037;49.536;8.500;2022-07-05T07:56:45;26.40;52.90
38241;DHT22;24037;49.536;8.500;2022-07-05T07:59:11;26.70;53.10
38241;DHT22;24037;49.536;8.500;2022-07-05T08:01:38;26.80;52.40
38241;DHT22;24037;49.536;8.500;2022-07-05T08:04:04;26.50;51.80
38241;DHT22;24037;49.536;8.500;2022-07-05T08:06:30;26.50;50.80
38241;DHT22;24037;49.536;8.500;2022-07-05T08:08:56;25.90;52.20
38241;DHT22;24037;49.536;8.500;2022-07-05T08:11:23;25.80;52.00
38241;DHT22;24037;49.536;8.500;2022-07-05T08:13:49;26.80;50.70
38241;DHT22;24037;49.536;8.500;2022-07-05T08:16:15;26.80;50.70
38241;DHT22;24037;49.536;8.500;2022-07-05T08:18:41;26.20;50.80
38241;DHT22;24037;49.536;8.500;2022-07-05T08:21:28;26.50;51.40
38241;DHT22;24037;49.536;8.500;2022-07-05T08:23:59;25.50;51.10
38241;DHT22;24037;49.536;8.500;2022-07-05T08:26:26;25.30;51.90
38241;DHT22;24037;49.536;8.500;2022-07-05T08:28:53;25.70;51.30
38241;DHT22;24037;49.536;8.500;2022-07-05T08:31:20;26.10;51.20
38241;DHT22;24037;49.536;8.500;2022-07-05T08:33:47;25.80;50.10
38241;DHT22;24037;49.536;8.500;2022-07-05T08:36:13;25.90;50.30
38241;DHT22;24037;49.536;8.500;2022-07-05T08:38:39;26.70;50.70
38241;DHT22;24037;49.536;8.500;2022-07-05T08:41:07;26.70;49.70
38241;DHT22;24037;49.536;8.500;2022-07-05T08:43:36;26.30;49.90
38241;DHT22;24037;49.536;8.500;2022-07-05T08:46:05;26.00;49.70
38241;DHT22;24037;49.536;8.500;2022-07-05T08:48:37;26.10;49.70
38241;DHT22;24037;49.536;8.500;2022-07-05T08:51:14;25.30;50.50
38241;DHT22;24037;49.536;8.500;2022-07-05T08:53:44;25.60;51.60
38241;DHT22;24037;49.536;8.500;2022-07-05T08:56:12;26.40;51.40
38241;DHT22;24037;49.536;8.500;2022-07-05T08:58:39;27.30;49.80
38241;DHT22;24037;49.536;8.500;2022-07-05T09:01:07;27.00;48.50
38241;DHT22;24037;49.536;8.500;2022-07-05T09:03:47;26.60;49.50
38241;DHT22;24037;49.536;8.500;2022-07-05T09:08:44;26.80;48.90
38241;DHT22;24037;49.536;8.500;2022-07-05T09:11:13;26.70;48.70
38241;DHT22;24037;49.536;8.500;2022-07-05T09:13:47;26.40;48.80
38241;DHT22;24037;49.536;8.500;2022-07-05T09:16:14;26.90;47.70
38241;DHT22;24037;49.536;8.500;2022-07-05T09:18:45;27.10;47.90
38241;DHT22;24037;49.536;8.500;2022-07-05T09:23:43;27.40;47.30
38241;DHT22;24037;49.536;8.500;2022-07-05T09:26:09;27.30;47.20
38241;DHT22;24037;49.536;8.500;2022-07-05T09:28:36;27.40;47.20
38241;DHT22;24037;49.536;8.500;2022-07-05T09:31:02;27.40;47.30
38241;DHT22;24037;49.536;8.500;2022-07-05T09:33:29;27.60;46.60
38241;DHT22;24037;49.536;8.500;2022-07-05T09:35:56;27.90;47.30
38241;DHT22;24037;49.536;8.500;2022-07-05T09:38:27;27.60;46.00
38241;DHT22;24037;49.536;8.500;2022-07-05T09:40:56;27.30;47.10
38241;DHT22;24037;49.536;8.500;2022-07-05T09:43:27;27.10;46.50
38241;DHT22;24037;49.536;8.500;2022-07-05T09:45:57;27.60;47.30
38241;DHT22;24037;49.536;8.500;2022-07-05T09:48:25;28.00;46.60
38241;DHT22;24037;49.536;8.500;2022-07-05T09:50:51;27.90;46.40
38241;DHT22;24037;49.536;8.500;2022-07-05T09:53:19;27.40;46.90
38241;DHT22;24037;49.536;8.500;2022-07-05T09:56:01;27.30;47.20
38241;DHT22;24037;49.536;8.500;2022-07-05T09:58:29;27.10;47.10
38241;DHT22;24037;49.536;8.500;2022-07-05T10:00:55;27.80;46.70
38241;DHT22;24037;49.536;8.500;2022-07-05T10:03:22;27.60;46.80
38241;DHT22;24037;49.536;8.500;2022-07-05T10:05:48;27.50;46.30
38241;DHT22;24037;49.536;8.500;2022-07-05T10:08:15;27.50;47.00
38241;DHT22;24037;49.536;8.500;2022-07-05T10:10:43;26.50;47.50
38241;DHT22;24037;49.536;8.500;2022-07-05T10:13:14;26.70;47.70
38241;DHT22;24037;49.536;8.500;2022-07-05T10:15:40;26.60;48.20
38241;DHT22;24037;49.536;8.500;2022-07-05T10:18:11;26.90;47.20
38241;DHT22;24037;49.536;8.500;2022-07-05T10:20:43;26.80;48.30
38241;DHT22;24037;49.536;8.500;2022-07-05T10:23:14;27.00;48.90
38241;DHT22;24037;49.536;8.500;2022-07-05T10:25:44;26.60;47.70
38241;DHT22;24037;49.536;8.500;2022-07-05T10:28:10;26.10;48.70
38241;DHT22;24037;49.536;8.500;2022-07-05T10:30:37;26.30;47.80
38241;DHT22;24037;49.536;8.500;2022-07-05T10:33:06;26.20;47.60
38241;DHT22;24037;49.536;8.500;2022-07-05T10:35:34;26.70;48.90
38241;DHT22;24037;49.536;8.500;2022-07-05T10:38:01;27.70;47.60
38241;DHT22;24037;49.536;8.500;2022-07-05T10:40:29;27.90;45.40
38241;DHT22;24037;49.536;8.500;2022-07-05T10:43:00;27.30;48.60
38241;DHT22;24037;49.536;8.500;2022-07-05T10:45:33;26.80;46.80
38241;DHT22;24037;49.536;8.500;2022-07-05T10:50:53;27.00;48.00
38241;DHT22;24037;49.536;8.500;2022-07-05T10:53:28;27.00;47.10
38241;DHT22;24037;49.536;8.500;2022-07-05T10:58:41;26.90;46.90
38241;DHT22;24037;49.536;8.500;2022-07-05T11:04:10;27.00;46.60
38241;DHT22;24037;49.536;8.500;2022-07-05T11:06:41;27.10;46.30
38241;DHT22;24037;49.536;8.500;2022-07-05T11:11:42;26.80;47.40
38241;DHT22;24037;49.536;8.500;2022-07-05T11:16:48;27.10;46.30
38241;DHT22;24037;49.536;8.500;2022-07-05T11:20:06;27.00;45.60
38241;DHT22;24037;49.536;8.500;2022-07-05T11:22:34;27.40;46.30
38241;DHT22;24037;49.536;8.500;2022-07-05T11:25:02;27.70;46.20
38241;DHT22;24037;49.536;8.500;2022-07-05T11:27:29;27.80;46.00
38241;DHT22;24037;49.536;8.500;2022-07-05T11:29:57;27.60;45.80
38241;DHT22;24037;49.536;8.500;2022-07-05T11:32:35;27.70;46.80
38241;DHT22;24037;49.536;8.500;2022-07-05T11:35:16;27.40;45.80
38241;DHT22;24037;49.536;8.500;2022-07-05T11:37:59;27.10;45.70
38241;DHT22;24037;49.536;8.500;2022-07-05T11:40:34;27.30;46.60
38241;DHT22;24037;49.536;8.500;2022-07-05T11:43:01;27.40;45.00
38241;DHT22;24037;49.536;8.500;2022-07-05T11:45:30;27.30;44.80
38241;DHT22;24037;49.536;8.500;2022-07-05T11:47:56;27.30;45.20
38241;DHT22;24037;49.536;8.500;2022-07-05T11:50:31;27.30;45.60
38241;DHT22;24037;49.536;8.500;2022-07-05T11:52:58;27.40;44.70
38241;DHT22;24037;49.536;8.500;2022-07-05T11:55:26;27.50;44.10
38241;DHT22;24037;49.536;8.500;2022-07-05T11:57:54;27.50;44.50
38241;DHT22;24037;49.536;8.500;2022-07-05T12:00:33;28.00;44.50
38241;DHT22;24037;49.536;8.500;2022-07-05T12:03:13;28.10;43.80
38241;DHT22;24037;49.536;8.500;2022-07-05T12:05:40;28.00;43.50
38241;DHT22;24037;49.536;8.500;2022-07-05T12:08:09;28.30;43.50
38241;DHT22;24037;49.536;8.500;2022-07-05T12:10:36;28.40;42.30
38241;DHT22;24037;49.536;8.500;2022-07-05T12:13:21;28.10;42.80
38241;DHT22;24037;49.536;8.500;2022-07-05T12:15:47;27.80;42.80
38241;DHT22;24037;49.536;8.500;2022-07-05T12:18:14;27.60;44.20
38241;DHT22;24037;49.536;8.500;2022-07-05T12:20:42;27.70;42.70
38241;DHT22;24037;49.536;8.500;2022-07-05T12:23:08;27.30;43.10
38241;DHT22;24037;49.536;8.500;2022-07-05T12:25:35;27.30;42.50
38241;DHT22;24037;49.536;8.500;2022-07-05T12:28:03;27.10;42.60
38241;DHT22;24037;49.536;8.500;2022-07-05T12:30:32;27.10;43.10
38241;DHT22;24037;49.536;8.500;2022-07-05T12:35:46;26.90;43.30
38241;DHT22;24037;49.536;8.500;2022-07-05T12:38:15;26.80;42.20
38241;DHT22;24037;49.536;8.500;2022-07-05T12:40:43;26.80;42.10
38241;DHT22;24037;49.536;8.500;2022-07-05T12:43:14;27.20;42.50
38241;DHT22;24037;49.536;8.500;2022-07-05T12:45:42;27.50;41.30
38241;DHT22;24037;49.536;8.500;2022-07-05T12:48:10;27.70;42.70
38241;DHT22;24037;49.536;8.500;2022-07-05T12:50:50;28.20;42.10
38241;DHT22;24037;49.536;8.500;2022-07-05T12:53:18;28.50;40.90
38241;DHT22;24037;49.536;8.500;2022-07-05T12:56:07;28.40;40.70
38241;DHT22;24037;49.536;8.500;2022-07-05T12:59:00;28.10;41.20
38241;DHT22;24037;49.536;8.500;2022-07-05T13:01:37;27.40;41.30
38241;DHT22;24037;49.536;8.500;2022-07-05T13:04:07;27.40;41.90
38241;DHT22;24037;49.536;8.500;2022-07-05T13:06:51;27.40;41.10
38241;DHT22;24037;49.536;8.500;2022-07-05T13:12:19;27.50;43.00
38241;DHT22;24037;49.536;8.500;2022-07-05T13:14:48;27.60;42.00
38241;DHT22;24037;49.536;8.500;2022-07-05T13:17:17;27.90;42.40
38241;DHT22;24037;49.536;8.500;2022-07-05T13:19:45;28.10;41.50
38241;DHT22;24037;49.536;8.500;2022-07-05T13:22:12;28.50;41.50
38241;DHT22;24037;49.536;8.500;2022-07-05T13:24:39;29.00;41.60
38241;DHT22;24037;49.536;8.500;2022-07-05T13:27:07;29.00;40.30
38241;DHT22;24037;49.536;8.500;2022-07-05T13:29:34;28.60;40.50
38241;DHT22;24037;49.536;8.500;2022-07-05T13:32:00;28.60;41.00
38241;DHT22;24037;49.536;8.500;2022-07-05T13:34:27;28.50;41.00
38241;DHT22;24037;49.536;8.500;2022-07-05T13:36:55;28.20;41.70
38241;DHT22;24037;49.536;8.500;2022-07-05T13:39:22;28.10;40.80
38241;DHT22;24037;49.536;8.500;2022-07-05T13:41:51;28.30;42.20
38241;DHT22;24037;49.536;8.500;2022-07-05T13:44:17;28.70;41.40
38241;DHT22;24037;49.536;8.500;2022-07-05T13:46:43;28.70;41.00
38241;DHT22;24037;49.536;8.500;2022-07-05T13:49:10;28.60;40.90
38241;DHT22;24037;49.536;8.500;2022-07-05T13:51:36;28.20;40.80
38241;DHT22;24037;49.536;8.500;2022-07-05T13:54:03;28.10;42.30
38241;DHT22;24037;49.536;8.500;2022-07-05T13:56:29;28.00;41.50
38241;DHT22;24037;49.536;8.500;2022-07-05T13:58:57;27.80;41.00
38241;DHT22;24037;49.536;8.500;2022-07-05T14:01:25;27.80;42.40
38241;DHT22;24037;49.536;8.500;2022-07-05T14:03:56;28.20;41.80
38241;DHT22;24037;49.536;8.500;2022-07-05T14:06:27;28.40;41.00
38241;DHT22;24037;49.536;8.500;2022-07-05T14:08:53;28.30;41.00
38241;DHT22;24037;49.536;8.500;2022-07-05T14:11:19;28.20;41.90
38241;DHT22;24037;49.536;8.500;2022-07-05T14:13:45;28.20;40.80
38241;DHT22;24037;49.536;8.500;2022-07-05T14:16:12;28.20;40.10
38241;DHT22;24037;49.536;8.500;2022-07-05T14:18:38;28.20;40.60
38241;DHT22;24037;49.536;8.500;2022-07-05T14:21:05;28.20;40.50
38241;DHT22;24037;49.536;8.500;2022-07-05T14:23:31;28.10;41.90
38241;DHT22;24037;49.536;8.500;2022-07-05T14:25:58;28.00;41.30
38241;DHT22;24037;49.536;8.500;2022-07-05T14:28:25;28.30;42.00
38241;DHT22;24037;49.536;8.500;2022-07-05T14:30:51;28.70;41.30
38241;DHT22;24037;49.536;8.500;2022-07-05T14:33:17;28.70;41.10
38241;DHT22;24037;49.536;8.500;2022-07-05T14:35:44;28.70;42.20
38241;DHT22;24037;49.536;8.500;2022-07-05T14:38:10;28.40;40.60
38241;DHT22;24037;49.536;8.500;2022-07-05T14:40:36;28.10;41.40
38241;DHT22;24037;49.536;8.500;2022-07-05T14:43:02;27.90;41.80
38241;DHT22;24037;49.536;8.500;2022-07-05T14:45:29;28.10;41.90
38241;DHT22;24037;49.536;8.500;2022-07-05T14:47:55;28.50;41.90
38241;DHT22;24037;49.536;8.500;2022-07-05T14:50:22;28.60;41.10
38241;DHT22;24037;49.536;8.500;2022-07-05T14:52:48;28.80;41.60
38241;DHT22;24037;49.536;8.500;2022-07-05T14:55:15;29.10;40.30
38241;DHT22;24037;49.536;8.500;2022-07-05T14:57:42;28.60;40.50
38241;DHT22;24037;49.536;8.500;2022-07-05T15:00:11;28.60;40.70
38241;DHT22;24037;49.536;8.500;2022-07-05T15:02:37;28.20;40.70
38241;DHT22;24037;49.536;8.500;2022-07-05T15:05:05;27.90;41.60
38241;DHT22;24037;49.536;8.500;2022-07-05T15:07:31;28.00;40.80
38241;DHT22;24037;49.536;8.500;2022-07-05T15:09:58;28.00;40.30
38241;DHT22;24037;49.536;8.500;2022-07-05T15:12:24;27.90;40.50
38241;DHT22;24037;49.536;8.500;2022-07-05T15:14:50;27.90;40.60
38241;DHT22;24037;49.536;8.500;2022-07-05T15:17:16;28.40;40.10
38241;DHT22;24037;49.536;8.500;2022-07-05T15:19:43;28.60;40.60
38241;DHT22;24037;49.536;8.500;2022-07-05T15:22:09;28.70;40.00
38241;DHT22;24037;49.536;8.500;2022-07-05T15:24:36;28.30;40.80
38241;DHT22;24037;49.536;8.500;2022-07-05T15:27:03;28.60;42.00
38241;DHT22;24037;49.536;8.500;2022-07-05T15:29:29;28.70;40.60
38241;DHT22;24037;49.536;8.500;2022-07-05T15:31:56;28.60;40.40
38241;DHT22;24037;49.536;8.500;2022-07-05T15:34:23;28.20;40.70
38241;DHT22;24037;49.536;8.500;2022-07-05T15:36:52;27.90;40.70
38241;DHT22;24037;49.536;8.500;2022-07-05T15:39:18;27.80;40.70
38241;DHT22;24037;49.536;8.500;2022-07-05T15:41:44;27.80;41.10
38241;DHT22;24037;49.536;8.500;2022-07-05T15:44:11;27.80;40.80
38241;DHT22;24037;49.536;8.500;2022-07-05T15:46:37;27.80;41.20
38241;DHT22;24037;49.536;8.500;2022-07-05T15:49:22;27.80;41.20
38241;DHT22;24037;49.536;8.500;2022-07-05T15:51:48;27.50;41.50
38241;DHT22;24037;49.536;8.500;2022-07-05T15:54:14;27.40;41.20
38241;DHT22;24037;49.536;8.500;2022-07-05T15:56:40;27.30;41.50
38241;DHT22;24037;49.536;8.500;2022-07-05T15:59:07;27.30;40.90
38241;DHT22;24037;49.536;8.500;2022-07-05T16:01:33;27.50;41.50
38241;DHT22;24037;49.536;8.500;2022-07-05T16:04:00;27.90;40.70
38241;DHT22;24037;49.536;8.500;2022-07-05T16:06:26;28.20;40.50
38241;DHT22;24037;49.536;8.500;2022-07-05T16:08:52;28.50;40.50
38241;DHT22;24037;49.536;8.500;2022-07-05T16:11:18;28.50;40.70
38241;DHT22;24037;49.536;8.500;2022-07-05T16:13:45;28.50;40.80